Terminal Aerodrome Forecast
Issued by NWS Corpus Christi, TX

Home | Current Version | Previous Version | Text Only | Print | Product List | Glossary On
Versions: 1 2 3 4 5 6 7 8 9 10 11 12 13 14 15 16
000
FTUS44 KCRP 211741
TAFCRP
TAF
KCRP 211741Z 2118/2218 22008KT P6SM SCT030 BKN250
     FM212200 12006KT P6SM FEW050 BKN250
     FM220400 03006KT P6SM FEW020 SCT040
     FM220700 02012KT P6SM VCSH SCT020 BKN050
     FM220900 01017G24KT P6SM VCSH BKN015 OVC050
     FM221300 36020G28KT P6SM OVC018=

USA.gov is the U.S. government's official web portal to all federal, state and local government web resources and services.